createdAt,value
2022-08-14T00:02:51.850Z,52.71
2022-08-14T00:08:44.506Z,52.77
2022-08-14T00:14:17.312Z,52.73
2022-08-14T00:19:48.332Z,53.09
2022-08-14T00:25:20.803Z,53.27
2022-08-14T00:30:53.818Z,53.25
2022-08-14T00:36:37.694Z,53.26
2022-08-14T00:42:21.343Z,53.40
2022-08-14T00:48:11.989Z,53.49
2022-08-14T00:53:43.798Z,53.47
2022-08-14T00:59:16.178Z,53.26
2022-08-14T01:04:53.778Z,53.64
2022-08-14T01:10:47.119Z,53.69
2022-08-14T01:16:27.921Z,53.89
2022-08-14T01:22:01.142Z,53.80
2022-08-14T01:27:53.419Z,54.02
2022-08-14T01:33:29.406Z,54.25
2022-08-14T01:39:01.176Z,54.09
2022-08-14T01:44:34.543Z,54.44
2022-08-14T01:50:08.223Z,54.64
2022-08-14T01:55:41.206Z,54.53
2022-08-14T02:01:15.558Z,54.60
2022-08-14T02:06:48.424Z,55.09
2022-08-14T02:12:26.370Z,54.97
2022-08-14T02:18:04.685Z,55.04
2022-08-14T02:23:36.797Z,55.10
2022-08-14T02:29:13.078Z,55.04
2022-08-14T02:34:44.609Z,55.01
2022-08-14T02:40:19.477Z,55.15
2022-08-14T02:45:50.583Z,55.12
2022-08-14T02:51:21.906Z,55.24
2022-08-14T02:57:16.012Z,55.35
2022-08-14T03:02:58.593Z,55.35
2022-08-14T03:08:34.455Z,55.63
2022-08-14T03:14:05.623Z,55.36
2022-08-14T03:19:37.768Z,55.52
2022-08-14T03:25:12.366Z,55.50
2022-08-14T03:30:44.026Z,55.37
2022-08-14T03:37:38.964Z,55.46
2022-08-14T03:42:19.212Z,55.65
2022-08-14T03:47:58.393Z,55.47
2022-08-14T03:53:34.212Z,55.39
2022-08-14T03:59:18.019Z,55.52
2022-08-14T04:04:50.369Z,55.86
2022-08-14T04:10:26.246Z,55.79
2022-08-14T04:16:12.486Z,55.69
2022-08-14T04:22:08.083Z,55.88
2022-08-14T04:27:48.644Z,55.76
2022-08-14T04:33:32.309Z,55.88
2022-08-14T04:39:22.158Z,56.02
2022-08-14T04:45:00.598Z,55.96
2022-08-14T04:50:43.690Z,56.07
2022-08-14T04:56:31.050Z,55.93
2022-08-14T05:02:05.677Z,55.71
2022-08-14T05:07:54.356Z,55.78
2022-08-14T05:13:31.879Z,55.53
2022-08-14T05:19:18.037Z,55.67
2022-08-14T05:24:58.387Z,55.57
2022-08-14T05:30:29.706Z,55.64
2022-08-14T05:36:04.270Z,55.43
2022-08-14T05:41:52.969Z,55.35
2022-08-14T05:47:28.930Z,55.56
2022-08-14T05:53:09.353Z,55.65
2022-08-14T05:58:41.659Z,55.76
2022-08-14T06:04:13.362Z,55.82
2022-08-14T06:09:50.997Z,56.02
2022-08-14T06:15:29.623Z,55.98
2022-08-14T06:21:02.562Z,56.03
2022-08-14T06:26:34.295Z,55.67
2022-08-14T06:32:38.356Z,55.24
2022-08-14T06:37:59.555Z,54.50
2022-08-14T06:43:32.461Z,53.86
2022-08-14T06:49:03.895Z,53.76
2022-08-14T06:54:35.873Z,54.09
2022-08-14T07:00:09.989Z,55.23
2022-08-14T07:05:57.762Z,56.35
2022-08-14T07:11:29.872Z,56.64
2022-08-14T07:17:01.221Z,57.32
2022-08-14T07:22:56.397Z,57.96
2022-08-14T07:28:35.833Z,57.63
2022-08-14T07:34:36.092Z,56.85
2022-08-14T07:40:06.766Z,55.55
2022-08-14T07:45:40.629Z,55.30
2022-08-14T07:51:11.705Z,54.23
2022-08-14T07:56:46.979Z,53.42
2022-08-14T08:02:20.502Z,52.74
2022-08-14T08:07:53.901Z,52.82
2022-08-14T08:13:29.214Z,52.25
2022-08-14T08:19:05.894Z,51.67
2022-08-14T08:24:45.504Z,51.31
2022-08-14T08:30:16.753Z,51.40
2022-08-14T08:35:50.619Z,51.47
2022-08-14T08:41:21.901Z,51.69
2022-08-14T08:46:58.863Z,51.50
2022-08-14T08:52:31.538Z,51.72
2022-08-14T08:58:12.386Z,51.85
2022-08-14T09:03:47.828Z,52.12
2022-08-14T09:09:33.107Z,52.38
2022-08-14T09:15:08.951Z,52.43
2022-08-14T09:20:46.378Z,51.96
2022-08-14T09:26:20.897Z,52.38
2022-08-14T09:31:57.553Z,52.38
2022-08-14T09:37:41.547Z,53.92
2022-08-14T09:43:42.209Z,53.07
2022-08-14T09:49:16.418Z,53.47
2022-08-14T09:54:49.440Z,53.97
2022-08-14T10:06:59.030Z,53.29
2022-08-14T10:12:54.688Z,52.93
2022-08-14T10:18:28.662Z,52.79
2022-08-14T10:24:00.317Z,52.96
2022-08-14T10:29:37.703Z,53.00
2022-08-14T10:35:14.802Z,53.32
2022-08-14T10:40:52.232Z,53.24
2022-08-14T10:47:40.339Z,52.98
2022-08-14T10:52:34.901Z,53.04
2022-08-14T10:58:13.998Z,53.66
2022-08-14T11:03:55.661Z,57.09
2022-08-14T11:09:31.383Z,58.39
2022-08-14T11:15:03.759Z,58.33
2022-08-14T11:20:39.068Z,59.04
2022-08-14T11:26:11.835Z,59.53
2022-08-14T11:31:44.810Z,56.51
2022-08-14T11:37:33.912Z,56.25
2022-08-14T11:43:11.077Z,54.92
2022-08-14T11:49:04.360Z,54.19
2022-08-14T11:54:38.267Z,53.48
2022-08-14T12:00:14.745Z,53.03
2022-08-14T12:05:51.246Z,53.05
2022-08-14T12:11:22.563Z,53.85
2022-08-14T12:17:12.128Z,53.61
2022-08-14T12:22:52.661Z,53.73
2022-08-14T12:28:34.103Z,53.59
2022-08-14T12:34:24.105Z,51.74
2022-08-14T12:39:55.973Z,51.71
2022-08-14T12:45:33.806Z,51.42
2022-08-14T12:51:18.412Z,50.65
2022-08-14T12:57:08.001Z,49.31
2022-08-14T13:02:42.428Z,49.00
2022-08-14T13:08:32.933Z,48.43
2022-08-14T13:14:06.729Z,48.00
2022-08-14T13:19:45.984Z,47.66
2022-08-14T13:25:26.164Z,47.67
2022-08-14T13:30:58.171Z,48.16
2022-08-14T13:36:54.194Z,48.78
2022-08-14T13:42:23.142Z,49.09
2022-08-14T13:47:55.641Z,49.64
2022-08-14T13:53:33.135Z,49.40
2022-08-14T13:59:04.863Z,49.55
2022-08-14T14:04:42.987Z,48.72
2022-08-14T14:10:28.221Z,48.58
2022-08-14T14:16:02.564Z,49.41
2022-08-14T14:21:35.210Z,50.56
2022-08-14T14:27:38.994Z,51.13
2022-08-14T14:33:02.219Z,51.32
2022-08-14T14:38:41.137Z,51.01
2022-08-14T14:44:15.873Z,51.64
2022-08-14T14:49:55.120Z,51.52
2022-08-14T14:55:27.841Z,51.40
2022-08-14T15:01:23.746Z,51.18
2022-08-14T15:06:55.228Z,50.83
2022-08-14T15:12:34.403Z,50.67
2022-08-14T15:18:38.368Z,51.54
2022-08-14T15:24:13.861Z,53.70
2022-08-14T15:29:48.488Z,55.59
2022-08-14T15:35:22.230Z,61.37
2022-08-14T15:40:56.133Z,62.06
2022-08-14T15:46:42.947Z,62.79
2022-08-14T15:52:16.339Z,64.77
2022-08-14T15:58:07.220Z,64.04
2022-08-14T16:03:46.373Z,64.66
2022-08-14T16:09:21.278Z,65.71
2022-08-14T16:14:53.598Z,64.91
2022-08-14T16:20:41.559Z,65.07
2022-08-14T16:26:29.854Z,66.20
2022-08-14T16:32:32.511Z,67.52
2022-08-14T16:37:56.318Z,67.88
2022-08-14T16:43:29.993Z,67.82
2022-08-14T16:49:06.836Z,67.32
2022-08-14T16:54:44.528Z,68.24
2022-08-14T17:00:49.262Z,67.85
2022-08-14T17:06:43.066Z,68.41
2022-08-14T17:12:35.043Z,69.01
2022-08-14T17:18:14.863Z,68.67
2022-08-14T17:24:55.922Z,67.57
2022-08-14T17:29:58.000Z,67.35
2022-08-14T17:41:23.735Z,66.85
2022-08-14T17:47:08.289Z,65.88
2022-08-14T17:52:50.237Z,65.55
2022-08-14T17:58:27.267Z,65.35
2022-08-14T18:04:05.434Z,65.25
2022-08-14T18:09:57.635Z,64.90
2022-08-14T18:15:37.089Z,64.88
2022-08-14T18:21:24.200Z,64.14
2022-08-14T18:27:22.986Z,64.26
2022-08-14T18:32:55.667Z,64.00
2022-08-14T18:38:55.453Z,64.20
2022-08-14T18:44:50.804Z,63.98
2022-08-14T18:50:27.025Z,64.37
2022-08-14T18:56:09.861Z,64.00
2022-08-14T19:01:44.266Z,63.31
2022-08-14T19:07:23.868Z,62.99
2022-08-14T19:13:03.354Z,63.84
2022-08-14T19:19:00.118Z,63.42
2022-08-14T19:24:35.768Z,63.06
2022-08-14T19:30:20.046Z,63.19
2022-08-14T19:35:59.790Z,62.87
2022-08-14T19:41:34.948Z,63.01
2022-08-14T19:47:09.438Z,62.49
2022-08-14T19:52:42.488Z,62.77
2022-08-14T19:58:26.020Z,62.68
2022-08-14T20:04:02.973Z,62.69
2022-08-14T20:11:03.335Z,62.67
2022-08-14T20:21:34.318Z,62.41
2022-08-14T20:27:34.053Z,62.03
2022-08-14T20:33:10.664Z,62.11
2022-08-14T20:38:42.736Z,62.13
2022-08-14T20:44:42.159Z,61.91
2022-08-14T20:50:23.573Z,61.98
2022-08-14T20:56:04.688Z,62.10
2022-08-14T21:01:56.757Z,62.20
2022-08-14T21:07:36.161Z,62.03
2022-08-14T21:14:08.647Z,62.19
2022-08-14T21:19:05.886Z,62.26
2022-08-14T21:24:47.489Z,62.35
2022-08-14T21:30:21.216Z,62.16
2022-08-14T21:36:12.019Z,62.33
2022-08-14T21:41:54.439Z,62.27
2022-08-14T21:47:30.297Z,62.34
2022-08-14T21:53:03.622Z,62.20
2022-08-14T21:58:53.659Z,62.27
2022-08-14T22:04:33.332Z,62.41
2022-08-14T22:10:07.900Z,62.23
2022-08-14T22:15:43.852Z,62.24
2022-08-14T22:21:22.679Z,62.32
2022-08-14T22:26:55.154Z,62.33
2022-08-14T22:32:56.701Z,62.23
2022-08-14T22:38:37.168Z,62.30
2022-08-14T22:44:28.437Z,62.40
2022-08-14T22:50:31.158Z,62.25
2022-08-14T22:55:52.515Z,62.29
2022-08-14T23:01:56.140Z,62.41
2022-08-14T23:08:56.115Z,62.27
2022-08-14T23:13:20.642Z,62.34
2022-08-14T23:18:53.915Z,62.37
2022-08-14T23:24:27.333Z,62.28
2022-08-14T23:29:59.013Z,62.37
2022-08-14T23:35:33.069Z,62.43
2022-08-14T23:41:12.885Z,62.35
2022-08-14T23:46:52.629Z,62.35
2022-08-14T23:52:50.248Z,62.34
2022-08-14T23:58:29.599Z,62.47
